Wetterdaten: Montag, 26.01.2015
Datum Zeit Temp. A. Feuchte A. Luftdruck Regen Wind Richtung Richtung Sonnenschein ET UV Solar Taupunkt Windchill Windben Empfang
26.01.2015 00:00 -0,5 C 75 % 1027,8 hPa 0,0 l/m 0,7 km/h (0 Bft) W 275 0 min 0,000 mm 0,0 UV-I 0 W/m -4,4 C -0,5 C 4,0 km/h (1 Bft) 0,00 %
26.01.2015 00:15 -0,5 C 76 % 1027,7 hPa 0,0 l/m 0,4 km/h (0 Bft) W 274 0 min 0,000 mm 0,0 UV-I 0 W/m -4,2 C -0,5 C 4,0 km/h (1 Bft) 0,00 %
26.01.2015 00:30 -0,5 C 75 % 1027,5 hPa 0,0 l/m 2,2 km/h (1 Bft) W 274 0 min 0,000 mm 0,0 UV-I 0 W/m -4,4 C -0,5 C 4,0 km/h (1 Bft) 0,00 %
26.01.2015 00:45 -0,5 C 75 % 1027,5 hPa 0,0 l/m 0,4 km/h (0 Bft) W 274 0 min 0,000 mm 0,0 UV-I 0 W/m -4,4 C -0,5 C 4,0 km/h (1 Bft) 0,00 %
26.01.2015 01:00 -0,5 C 75 % 1027,4 hPa 0,0 l/m 0,0 km/h (0 Bft) W 274 0 min 0,000 mm 0,0 UV-I 0 W/m -4,4 C -0,5 C 0,0 km/h (0 Bft) 0,00 %
26.01.2015 01:15 -0,4 C 74 % 1027,3 hPa 0,0 l/m 0,4 km/h (0 Bft) W 274 0 min 0,000 mm 0,0 UV-I 0 W/m -4,5 C -0,4 C 4,0 km/h (1 Bft) 0,00 %
26.01.2015 01:30 -0,6 C 79 % 1027,4 hPa 0,0 l/m 0,7 km/h (0 Bft) W 274 0 min 0,000 mm 0,0 UV-I 0 W/m -3,8 C -0,6 C 4,0 km/h (1 Bft) 0,00 %
26.01.2015 01:45 -0,8 C 78 % 1027,4 hPa 0,0 l/m 1,8 km/h (1 Bft) W 274 0 min 0,000 mm 0,0 UV-I 0 W/m -4,1 C -0,8 C 4,0 km/h (1 Bft) 0,00 %
26.01.2015 02:00 -0,7 C 76 % 1027,2 hPa 0,0 l/m 0,4 km/h (0 Bft) W 274 0 min 0,000 mm 0,0 UV-I 0 W/m -4,4 C -0,7 C 4,0 km/h (1 Bft) 0,00 %
26.01.2015 02:15 -0,7 C 75 % 1027,2 hPa 0,0 l/m 0,4 km/h (0 Bft) W 274 0 min 0,000 mm 0,0 UV-I 0 W/m -4,6 C -0,7 C 4,0 km/h (1 Bft) 0,00 %
26.01.2015 02:30 -0,6 C 74 % 1027,2 hPa 0,0 l/m 1,4 km/h (1 Bft) W 274 0 min 0,000 mm 0,0 UV-I 0 W/m -4,6 C -0,6 C 4,0 km/h (1 Bft) 0,00 %
26.01.2015 02:45 -0,8 C 75 % 1027,1 hPa 0,0 l/m 0,7 km/h (0 Bft) W 274 0 min 0,000 mm 0,0 UV-I 0 W/m -4,7 C -0,8 C 4,0 km/h (1 Bft) 0,00 %
26.01.2015 03:00 -0,8 C 73 % 1027,1 hPa 0,0 l/m 0,0 km/h (0 Bft) W 274 0 min 0,000 mm 0,0 UV-I 0 W/m -5,0 C -0,8 C 0,0 km/h (0 Bft) 0,00 %
26.01.2015 03:15 -0,8 C 72 % 1026,9 hPa 0,0 l/m 1,8 km/h (1 Bft) W 273 0 min 0,000 mm 0,0 UV-I 0 W/m -5,2 C -0,8 C 4,0 km/h (1 Bft) 0,00 %
26.01.2015 03:30 -0,8 C 72 % 1027,0 hPa 0,0 l/m 0,0 km/h (0 Bft) W 273 0 min 0,000 mm 0,0 UV-I 0 W/m -5,2 C -0,8 C 0,0 km/h (0 Bft) 0,00 %
26.01.2015 03:45 -0,8 C 72 % 1026,9 hPa 0,0 l/m 4,0 km/h (1 Bft) W 273 0 min 0,000 mm 0,0 UV-I 0 W/m -5,2 C -0,8 C 7,9 km/h (2 Bft) 0,00 %
26.01.2015 04:00 -0,8 C 72 % 1027,0 hPa 0,0 l/m 0,4 km/h (0 Bft) W 273 0 min 0,000 mm 0,0 UV-I 0 W/m -5,2 C -0,8 C 4,0 km/h (1 Bft) 0,00 %
26.01.2015 04:15 -0,8 C 72 % 1027,0 hPa 0,0 l/m 2,2 km/h (1 Bft) W 273 0 min 0,000 mm 0,0 UV-I 0 W/m -5,2 C -0,8 C 4,0 km/h (1 Bft) 0,00 %
26.01.2015 04:30 -0,9 C 74 % 1027,1 hPa 0,0 l/m 0,0 km/h (0 Bft) W 273 0 min 0,000 mm 0,0 UV-I 0 W/m -4,9 C -0,9 C 0,0 km/h (0 Bft) 0,00 %
26.01.2015 04:45 -1,0 C 73 % 1027,1 hPa 0,0 l/m 0,0 km/h (0 Bft) W 273 0 min 0,000 mm 0,0 UV-I 0 W/m -5,2 C -1,0 C 0,0 km/h (0 Bft) 0,00 %
26.01.2015 05:00 -1,0 C 73 % 1027,0 hPa 0,0 l/m 0,4 km/h (0 Bft) W 273 0 min 0,000 mm 0,0 UV-I 0 W/m -5,2 C -1,0 C 4,0 km/h (1 Bft) 0,00 %
26.01.2015 05:15 -1,0 C 74 % 1027,1 hPa 0,0 l/m 0,7 km/h (0 Bft) W 273 0 min 0,000 mm 0,0 UV-I 0 W/m -5,0 C -1,0 C 4,0 km/h (1 Bft) 0,00 %
26.01.2015 05:30 -1,1 C 74 % 1027,2 hPa 0,0 l/m 0,4 km/h (0 Bft) W 273 0 min 0,000 mm 0,0 UV-I 0 W/m -5,1 C -1,1 C 4,0 km/h (1 Bft) 0,00 %
26.01.2015 05:45 -1,1 C 74 % 1027,1 hPa 0,0 l/m 2,2 km/h (1 Bft) W 273 0 min 0,000 mm 0,0 UV-I 0 W/m -5,1 C -1,1 C 4,0 km/h (1 Bft) 0,00 %
26.01.2015 06:00 -1,1 C 74 % 1027,3 hPa 0,0 l/m 0,0 km/h (0 Bft) W 273 0 min 0,000 mm 0,0 UV-I 0 W/m -5,1 C -1,1 C 0,0 km/h (0 Bft) 0,00 %
26.01.2015 06:15 -1,1 C 74 % 1027,2 hPa 0,0 l/m 0,0 km/h (0 Bft) W 273 0 min 0,000 mm 0,0 UV-I 0 W/m -5,1 C -1,1 C 0,0 km/h (0 Bft) 0,00 %
26.01.2015 06:30 -1,0 C 74 % 1027,3 hPa 0,0 l/m 0,0 km/h (0 Bft) W 273 0 min 0,000 mm 0,0 UV-I 0 W/m -5,0 C -1,0 C 0,0 km/h (0 Bft) 0,00 %
26.01.2015 06:45 -1,0 C 73 % 1027,3 hPa 0,0 l/m 0,4 km/h (0 Bft) W 273 0 min 0,000 mm 0,0 UV-I 0 W/m -5,2 C -1,0 C 4,0 km/h (1 Bft) 0,00 %
26.01.2015 07:00 -0,9 C 73 % 1027,3 hPa 0,0 l/m 0,4 km/h (0 Bft) W 273 0 min 0,000 mm 0,0 UV-I 0 W/m -5,1 C -0,9 C 4,0 km/h (1 Bft) 0,00 %
26.01.2015 07:15 -1,0 C 72 % 1027,2 hPa 0,0 l/m 0,0 km/h (0 Bft) W 273 0 min 0,000 mm 0,0 UV-I 0 W/m -5,4 C -1,0 C 0,0 km/h (0 Bft) 0,00 %
26.01.2015 07:30 -0,9 C 72 % 1027,5 hPa 0,0 l/m 4,3 km/h (1 Bft) W 273 0 min 0,000 mm 0,0 UV-I 0 W/m -5,3 C -0,9 C 7,9 km/h (2 Bft) 0,00 %
26.01.2015 07:45 -0,9 C 72 % 1027,4 hPa 0,0 l/m 0,0 km/h (0 Bft) W 274 0 min 0,000 mm 0,0 UV-I 0 W/m -5,3 C -0,9 C 0,0 km/h (0 Bft) 0,00 %
26.01.2015 08:00 -0,9 C 72 % 1027,4 hPa 0,0 l/m 0,4 km/h (0 Bft) W 274 0 min 0,000 mm 0,0 UV-I 1 W/m -5,3 C -0,9 C 4,0 km/h (1 Bft) 0,00 %
26.01.2015 08:15 -0,8 C 72 % 1027,5 hPa 0,0 l/m 1,4 km/h (1 Bft) W 274 0 min 0,000 mm 0,0 UV-I 7 W/m -5,2 C -0,8 C 4,0 km/h (1 Bft) 0,00 %
26.01.2015 08:30 -0,7 C 72 % 1027,2 hPa 0,0 l/m 0,0 km/h (0 Bft) W 274 0 min 0,000 mm 0,0 UV-I 10 W/m -5,1 C -0,7 C 0,0 km/h (0 Bft) 0,00 %
26.01.2015 08:45 -0,7 C 71 % 1027,0 hPa 0,0 l/m 0,7 km/h (0 Bft) W 275 0 min 0,000 mm 0,0 UV-I 19 W/m -5,3 C -0,7 C 4,0 km/h (1 Bft) 0,00 %
26.01.2015 09:00 -0,5 C 70 % 1027,0 hPa 0,0 l/m 0,0 km/h (0 Bft) W 275 0 min 0,000 mm 0,0 UV-I 30 W/m -5,3 C -0,5 C 0,0 km/h (0 Bft) 0,00 %
26.01.2015 09:15 -0,5 C 71 % 1027,1 hPa 0,0 l/m 0,7 km/h (0 Bft) W 275 0 min 0,000 mm 1,0 UV-I 32 W/m -5,1 C -0,5 C 4,0 km/h (1 Bft) 0,00 %
26.01.2015 09:30 -0,5 C 70 % 1026,9 hPa 0,0 l/m 1,4 km/h (1 Bft) W 275 0 min 0,000 mm 1,0 UV-I 54 W/m -5,3 C -0,5 C 4,0 km/h (1 Bft) 0,00 %
26.01.2015 09:45 -0,3 C 70 % 1027,2 hPa 0,0 l/m 0,0 km/h (0 Bft) W-SW 252 0 min 0,000 mm 1,0 UV-I 80 W/m -5,1 C -0,3 C 0,0 km/h (0 Bft) 0,00 %
26.01.2015 10:00 -0,2 C 70 % 1026,8 hPa 0,0 l/m 1,4 km/h (1 Bft) W-SW 251 0 min 0,000 mm 1,0 UV-I 81 W/m -5,0 C -0,2 C 4,0 km/h (1 Bft) 0,00 %
26.01.2015 10:15 -0,1 C 70 % 1026,8 hPa 0,0 l/m 2,9 km/h (1 Bft) SW 235 0 min 0,000 mm 1,0 UV-I 90 W/m -4,9 C -0,1 C 4,0 km/h (1 Bft) 0,00 %
26.01.2015 10:30 0,1 C 69 % 1026,7 hPa 0,0 l/m 0,0 km/h (0 Bft) NW 307 0 min 0,000 mm 1,0 UV-I 99 W/m -4,9 C 0,1 C 0,0 km/h (0 Bft) 0,00 %
26.01.2015 10:45 0,3 C 68 % 1026,6 hPa 0,0 l/m 4,0 km/h (1 Bft) W-SW 250 0 min 0,000 mm 1,0 UV-I 147 W/m -4,9 C 0,3 C 7,9 km/h (2 Bft) 0,00 %
26.01.2015 11:00 0,3 C 68 % 1026,6 hPa 0,0 l/m 0,4 km/h (0 Bft) W-SW 252 0 min 0,000 mm 1,0 UV-I 97 W/m -4,9 C 0,3 C 4,0 km/h (1 Bft) 0,00 %
26.01.2015 11:15 0,2 C 69 % 1026,4 hPa 0,0 l/m 1,4 km/h (1 Bft) W-SW 253 0 min 0,000 mm 1,0 UV-I 73 W/m -4,8 C 0,2 C 4,0 km/h (1 Bft) 0,00 %
26.01.2015 11:30 0,3 C 69 % 1026,2 hPa 0,0 l/m 0,4 km/h (0 Bft) SW 215 0 min 0,000 mm 1,0 UV-I 81 W/m -4,7 C 0,3 C 4,0 km/h (1 Bft) 0,00 %
26.01.2015 11:45 0,3 C 69 % 1026,0 hPa 0,0 l/m 0,0 km/h (0 Bft) W-SW 251 0 min 0,000 mm 1,0 UV-I 83 W/m -4,7 C 0,3 C 0,0 km/h (0 Bft) 0,00 %
26.01.2015 12:00 0,2 C 70 % 1025,8 hPa 0,0 l/m 0,7 km/h (0 Bft) W-NW 283 0 min 0,000 mm 1,0 UV-I 80 W/m -4,6 C 0,2 C 4,0 km/h (1 Bft) 0,00 %
26.01.2015 12:15 0,2 C 70 % 1025,8 hPa 0,0 l/m 0,4 km/h (0 Bft) NW 311 0 min 0,000 mm 1,0 UV-I 85 W/m -4,6 C 0,2 C 4,0 km/h (1 Bft) 0,00 %
26.01.2015 12:30 0,4 C 69 % 1025,5 hPa 0,0 l/m 0,0 km/h (0 Bft) SW 231 0 min 0,000 mm 1,0 UV-I 102 W/m -4,6 C 0,4 C 0,0 km/h (0 Bft) 0,00 %
26.01.2015 12:45 0,4 C 70 % 1025,5 hPa 0,0 l/m 0,0 km/h (0 Bft) W-SW 251 0 min 0,000 mm 1,0 UV-I 105 W/m -4,4 C 0,4 C 0,0 km/h (0 Bft) 0,00 %
26.01.2015 13:00 0,5 C 72 % 1025,3 hPa 0,0 l/m 1,4 km/h (1 Bft) O 90 0 min 0,000 mm 1,0 UV-I 199 W/m -3,9 C 0,5 C 4,0 km/h (1 Bft) 0,00 %
26.01.2015 13:15 0,3 C 71 % 1025,2 hPa 0,0 l/m 0,4 km/h (0 Bft) SW 221 15 min 0,000 mm 2,0 UV-I 220 W/m -4,3 C 0,3 C 4,0 km/h (1 Bft) 0,00 %
26.01.2015 13:30 0,9 C 69 % 1024,8 hPa 0,0 l/m 0,0 km/h (0 Bft) SW 236 15 min 0,000 mm 2,0 UV-I 230 W/m -4,1 C 0,9 C 0,0 km/h (0 Bft) 0,00 %
26.01.2015 13:45 1,2 C 69 % 1024,7 hPa 0,0 l/m 0,7 km/h (0 Bft) SW 233 15 min 0,000 mm 2,0 UV-I 230 W/m -3,8 C 1,2 C 4,0 km/h (1 Bft) 0,00 %
26.01.2015 14:00 1,2 C 68 % 1024,3 hPa 0,0 l/m 0,0 km/h (0 Bft) SW 221 15 min 0,000 mm 1,0 UV-I 225 W/m -4,0 C 1,2 C 0,0 km/h (0 Bft) 0,00 %
26.01.2015 14:15 1,2 C 68 % 1024,2 hPa 0,0 l/m 1,8 km/h (1 Bft) W-SW 252 15 min 0,000 mm 1,0 UV-I 222 W/m -4,0 C 1,2 C 4,0 km/h (1 Bft) 0,00 %
26.01.2015 14:30 0,9 C 69 % 1024,0 hPa 0,0 l/m 0,7 km/h (0 Bft) S-SW 201 15 min 0,000 mm 1,0 UV-I 222 W/m -4,1 C 0,9 C 4,0 km/h (1 Bft) 0,00 %
26.01.2015 14:45 0,6 C 70 % 1024,0 hPa 0,0 l/m 4,3 km/h (1 Bft) W-SW 252 15 min 0,000 mm 1,0 UV-I 222 W/m -4,2 C 0,6 C 7,9 km/h (2 Bft) 0,00 %
26.01.2015 15:00 0,7 C 71 % 1023,7 hPa 0,0 l/m 0,4 km/h (0 Bft) W-SW 255 0 min 0,000 mm 1,0 UV-I 100 W/m -3,9 C 0,7 C 4,0 km/h (1 Bft) 0,00 %
26.01.2015 15:15 0,9 C 70 % 1023,5 hPa 0,0 l/m 0,0 km/h (0 Bft) W-SW 252 0 min 0,000 mm 1,0 UV-I 95 W/m -3,9 C 0,9 C 0,0 km/h (0 Bft) 0,00 %
26.01.2015 15:30 1,0 C 68 % 1023,3 hPa 0,0 l/m 0,0 km/h (0 Bft) W-SW 242 0 min 0,000 mm 1,0 UV-I 89 W/m -4,2 C 1,0 C 0,0 km/h (0 Bft) 0,00 %
26.01.2015 15:45 1,0 C 67 % 1023,0 hPa 0,0 l/m 1,4 km/h (1 Bft) W 259 0 min 0,000 mm 1,0 UV-I 76 W/m -4,4 C 1,0 C 4,0 km/h (1 Bft) 0,00 %
26.01.2015 16:00 0,6 C 67 % 1022,9 hPa 0,0 l/m 0,7 km/h (0 Bft) W-SW 256 0 min 0,000 mm 1,0 UV-I 43 W/m -4,8 C 0,6 C 4,0 km/h (1 Bft) 0,00 %
26.01.2015 16:15 0,2 C 70 % 1023,0 hPa 0,0 l/m 0,0 km/h (0 Bft) SW 230 0 min 0,000 mm 0,0 UV-I 36 W/m -4,6 C 0,2 C 0,0 km/h (0 Bft) 0,00 %
26.01.2015 16:30 -0,3 C 70 % 1022,8 hPa 0,0 l/m 0,0 km/h (0 Bft) SW 216 0 min 0,000 mm 0,0 UV-I 22 W/m -5,1 C -0,3 C 0,0 km/h (0 Bft) 0,00 %
26.01.2015 16:45 -0,5 C 72 % 1022,8 hPa 0,0 l/m 0,0 km/h (0 Bft) S-SW 205 0 min 0,000 mm 0,0 UV-I 5 W/m -4,9 C -0,5 C 0,0 km/h (0 Bft) 0,00 %
26.01.2015 17:00 -0,7 C 72 % 1022,7 hPa 0,0 l/m 0,0 km/h (0 Bft) S 184 0 min 0,000 mm 0,0 UV-I 0 W/m -5,1 C -0,7 C 0,0 km/h (0 Bft) 0,00 %
26.01.2015 17:15 -1,0 C 73 % 1022,8 hPa 0,0 l/m 0,0 km/h (0 Bft) S 184 0 min 0,000 mm 0,0 UV-I 0 W/m -5,2 C -1,0 C 0,0 km/h (0 Bft) 0,00 %
26.01.2015 17:30 -1,5 C 76 % 1022,8 hPa 0,0 l/m 0,0 km/h (0 Bft) S 184 0 min 0,000 mm 0,0 UV-I 0 W/m -5,2 C -1,5 C 0,0 km/h (0 Bft) 0,00 %
26.01.2015 17:45 -1,8 C 76 % 1022,7 hPa 0,0 l/m 0,0 km/h (0 Bft) S 184 0 min 0,000 mm 0,0 UV-I 0 W/m -5,5 C -1,8 C 0,0 km/h (0 Bft) 0,00 %
26.01.2015 18:00 -2,0 C 77 % 1022,9 hPa 0,0 l/m 0,0 km/h (0 Bft) S 183 0 min 0,000 mm 0,0 UV-I 0 W/m -5,5 C -2,0 C 0,0 km/h (0 Bft) 0,00 %
26.01.2015 18:15 -2,0 C 76 % 1022,4 hPa 0,0 l/m 0,0 km/h (0 Bft) S 184 0 min 0,000 mm 0,0 UV-I 0 W/m -5,6 C -2,0 C 0,0 km/h (0 Bft) 0,00 %
26.01.2015 18:30 -2,2 C 76 % 1022,4 hPa 0,0 l/m 0,0 km/h (0 Bft) S-SW 199 0 min 0,000 mm 0,0 UV-I 0 W/m -5,8 C -2,2 C 0,0 km/h (0 Bft) 0,00 %
26.01.2015 18:45 -2,5 C 74 % 1022,3 hPa 0,0 l/m 0,0 km/h (0 Bft) S-SW 202 0 min 0,000 mm 0,0 UV-I 0 W/m -6,5 C -2,5 C 0,0 km/h (0 Bft) 0,00 %
26.01.2015 19:00 -2,6 C 74 % 1022,1 hPa 0,0 l/m 0,0 km/h (0 Bft) S 175 0 min 0,000 mm 0,0 UV-I 0 W/m -6,6 C -2,6 C 0,0 km/h (0 Bft) 0,00 %
26.01.2015 19:15 -2,9 C 75 % 1021,9 hPa 0,0 l/m 0,0 km/h (0 Bft) S 175 0 min 0,000 mm 0,0 UV-I 0 W/m -6,7 C -2,9 C 0,0 km/h (0 Bft) 0,00 %
26.01.2015 19:30 -3,2 C 76 % 1022,0 hPa 0,0 l/m 0,0 km/h (0 Bft) S 175 0 min 0,000 mm 0,0 UV-I 0 W/m -6,8 C -3,2 C 0,0 km/h (0 Bft) 0,00 %
26.01.2015 19:45 -3,3 C 77 % 1021,9 hPa 0,0 l/m 0,0 km/h (0 Bft) S 175 0 min 0,000 mm 0,0 UV-I 0 W/m -6,7 C -3,3 C 0,0 km/h (0 Bft) 0,00 %
26.01.2015 20:00 -3,4 C 79 % 1021,6 hPa 0,0 l/m 0,0 km/h (0 Bft) S 175 0 min 0,000 mm 0,0 UV-I 0 W/m -6,5 C -3,4 C 0,0 km/h (0 Bft) 0,00 %
26.01.2015 20:15 -3,5 C 79 % 1021,5 hPa 0,0 l/m 0,0 km/h (0 Bft) S 175 0 min 0,000 mm 0,0 UV-I 0 W/m -6,6 C -3,5 C 0,0 km/h (0 Bft) 0,00 %
26.01.2015 20:30 -3,6 C 79 % 1021,5 hPa 0,0 l/m 0,0 km/h (0 Bft) S 175 0 min 0,000 mm 0,0 UV-I 0 W/m -6,7 C -3,6 C 0,0 km/h (0 Bft) 0,00 %
26.01.2015 20:45 -3,7 C 79 % 1021,3 hPa 0,0 l/m 0,0 km/h (0 Bft) S-SW 205 0 min 0,000 mm 0,0 UV-I 0 W/m -6,8 C -3,7 C 0,0 km/h (0 Bft) 0,00 %
26.01.2015 21:00 -3,8 C 79 % 1021,0 hPa 0,0 l/m 0,0 km/h (0 Bft) S 176 0 min 0,000 mm 0,0 UV-I 0 W/m -6,9 C -3,8 C 0,0 km/h (0 Bft) 0,00 %
26.01.2015 21:15 -3,6 C 79 % 1020,7 hPa 0,0 l/m 0,0 km/h (0 Bft) S-SW 205 0 min 0,000 mm 0,0 UV-I 0 W/m -6,7 C -3,6 C 0,0 km/h (0 Bft) 0,00 %
26.01.2015 21:30 -3,6 C 79 % 1020,5 hPa 0,0 l/m 0,0 km/h (0 Bft) S-SW 206 0 min 0,000 mm 0,0 UV-I 0 W/m -6,7 C -3,6 C 0,0 km/h (0 Bft) 0,00 %
26.01.2015 21:45 -3,7 C 78 % 1020,4 hPa 0,0 l/m 0,0 km/h (0 Bft) S-SW 200 0 min 0,000 mm 0,0 UV-I 0 W/m -7,0 C -3,7 C 0,0 km/h (0 Bft) 0,00 %
26.01.2015 22:00 -3,6 C 75 % 1020,1 hPa 0,0 l/m 0,0 km/h (0 Bft) SW 230 0 min 0,000 mm 0,0 UV-I 0 W/m -7,4 C -3,6 C 0,0 km/h (0 Bft) 0,00 %
26.01.2015 22:15 -3,5 C 74 % 1019,9 hPa 0,0 l/m 0,0 km/h (0 Bft) S-SW 202 0 min 0,000 mm 0,0 UV-I 0 W/m -7,4 C -3,5 C 0,0 km/h (0 Bft) 0,00 %
26.01.2015 22:30 -3,3 C 73 % 1019,6 hPa 0,0 l/m 0,0 km/h (0 Bft) S-SW 213 0 min 0,000 mm 0,0 UV-I 0 W/m -7,4 C -3,3 C 0,0 km/h (0 Bft) 0,00 %
26.01.2015 22:45 -2,9 C 72 % 1019,2 hPa 0,0 l/m 0,0 km/h (0 Bft) S-SO 161 0 min 0,000 mm 0,0 UV-I 0 W/m -7,2 C -2,9 C 0,0 km/h (0 Bft) 0,00 %
26.01.2015 23:00 -2,7 C 71 % 1019,1 hPa 0,0 l/m 0,0 km/h (0 Bft) SW 232 0 min 0,000 mm 0,0 UV-I 0 W/m -7,2 C -2,7 C 0,0 km/h (0 Bft) 0,00 %
26.01.2015 23:15 -2,6 C 71 % 1018,8 hPa 0,0 l/m 0,0 km/h (0 Bft) S 183 0 min 0,000 mm 0,0 UV-I 0 W/m -7,1 C -2,6 C 0,0 km/h (0 Bft) 0,00 %
26.01.2015 23:30 -2,6 C 75 % 1018,8 hPa 0,0 l/m 0,0 km/h (0 Bft) SW 220 0 min 0,000 mm 0,0 UV-I 0 W/m -6,4 C -2,6 C 0,0 km/h (0 Bft) 0,00 %
26.01.2015 23:45 -2,3 C 75 % 1018,6 hPa 0,0 l/m 0,0 km/h (0 Bft) W-SW 240 0 min 0,000 mm 0,0 UV-I 0 W/m -6,1 C -2,3 C 0,0 km/h (0 Bft) 0,00 %
_ Min-Zeit 21:00 15:45 23:45 - 01:00 - - - - - - 22:15 21:00 01:00 00:00
Minimum _ -3,8 C 67 % 1018,6 hPa - 0,0 km/h (0 Bft) - - - - - - -7,4 C -3,8 C 0,0 km/h (0 Bft) 0,00 %
_ Max-Zeit 13:45 01:30 00:00 00:00 07:30 - - 13:15 00:00 13:15 13:30 01:30 13:45 03:45 00:00
Maximum _ 1,2 C 79 % 1027,8 hPa 0,0 l/m 4,3 km/h
W (1 Bft)
- - 15 min 0,000 mm 2,0 UV-I 230 W/m -3,8 C 1,2 C 7,9 km/h
W (2 Bft)
0,00 %
Durchschnitt _ -1,0 C 73 % 1024,7 hPa #0,0 l/m 0,6 km/h (0 Bft) W - #1:45 h #0,000 mm 1,1 UV-I 100 W/m -5,3 C -1,0 C 2,0 km/h (1 Bft) 0,00 %